Arrowsic, ME

3:20 AM EDT on October 22, 2014 (GMT -0400)
Field | Change Station
CLOSE
Current Station
Personal Weather Station
Location: Bath, ME
Elevation: 25 ft
Nearby Weather Stations
Active Advisory: Areal Flood Watch

Elev 25 ft 43.93 °N, 69.86 °W | Updated 9 seconds ago

Rain
Rain
49.7 °F
Feels Like 47 °F
N
6.0
Wind Variable Wind from NNE
Gusts 6.0 mph

Today
High -- | Low -- °F
--% Chance of Precip.
Yesterday
High -- | Low -- °F
Precip. -- in
7:02 AM 5:44 PM
Waning Crescent, 3% visible
Pressure 30.09 in
Visibility 4.0 miles
Clouds Mostly Cloudy 800 ft
Overcast 1300 ft
Windchill 47 °F
Dew Point 49 °F
Humidity 99%
Rainfall 0.14 in
Snow Depth Not available.
UV 0 out of 12
Pollen .10 out of 12
Air Quality Not available.
Flu Activity Sporadic
SPECI KIWI 220713Z AUTO 06007KT 4SM -RA BR BKN008 OVC013 11/09 A3009 RMK AO2 CIG 005V011 P0001 T01060094

More Conditions Fewer Conditions

Pressure 30.09 in
Visibility 4.0 miles
Clouds Mostly Cloudy 800 ft
Overcast 1300 ft
Windchill 47 °F
Dew Point 49 °F
Humidity 99%
Rainfall 0.14 in
Snow Depth Not available.
UV 0 out of 12
Pollen .10 out of 12
Air Quality Not available.
Flu Activity Sporadic
SPECI KIWI 220713Z AUTO 06007KT 4SM -RA BR BKN008 OVC013 11/09 A3009 RMK AO2 CIG 005V011 P0001 T01060094

More Conditions Fewer Conditions

10-Day Weather Forecast

Almanac

Astronomy

Oct. 22, 2014 Rise Set
Actual Time 7:02 AM EDT 5:44 PM EDT
Civil Twilight 6:33 AM EDT 6:13 PM EDT
Nautical Twilight 5:59 AM EDT 6:47 PM EDT
Astronomical Twilight 5:26 AM EDT 7:20 PM EDT
Moon 5:38 AM EDT 5:10 PM EDT
Length of Visible Light 11h 40m
Length of Day
10h 41m
Tomorrow will be 2m 50s shorter.
Waning Crescent, 3% of the Moon is Illuminated
Today
Waning Crescent
Oct 23
New
Oct 30
First Quarter
Nov 6
Full
Nov 14
Last Quarter

Today's Extremes

State Highs State Lows

Community

WunderPhotos

Upload Photos

1,763,890 photos uploaded!

Nearby

Air Quality

  Air Quality AQ Index Pollutant
Wednesday Good
OZONE
Wednesday Good
PM2.5
Thursday Good
OZONE
Thursday Good
PM2.5
Friday Good
OZONE
Friday Good
PM2.5
Saturday Good
OZONE
Saturday Good
PM2.5

Snow Depth

Station Depth Elevation
No new snow has been reported.

Earthquake Activity

City Distance Mag. Time & Date
No recent earthquake activity has been reported nearby.
Minimum magnitude displayed is 2.5.

Coastal Water Temperatures

Place Temperature
Portland, ME 55.0 °F
Wells, ME 50.0 °F

Nearby Weather Stations